sensor_id;sensor_type;location;lat;lon;timestamp;pressure;altitude;pressure_sealevel;temperature;humidity
6615;BME280;3343;42.896;23.912;2023-01-04T00:00:50;97435.34;;;6.66;100.00
6615;BME280;3343;42.896;23.912;2023-01-04T00:03:17;97425.22;;;6.90;100.00
6615;BME280;3343;42.896;23.912;2023-01-04T00:05:45;97427.31;;;7.24;100.00
6615;BME280;3343;42.896;23.912;2023-01-04T00:08:11;97425.44;;;7.16;99.26
6615;BME280;3343;42.896;23.912;2023-01-04T00:10:38;97430.91;;;7.23;97.98
6615;BME280;3343;42.896;23.912;2023-01-04T00:13:05;97428.94;;;6.97;97.70
6615;BME280;3343;42.896;23.912;2023-01-04T00:15:32;97430.22;;;6.74;99.37
6615;BME280;3343;42.896;23.912;2023-01-04T00:17:59;97433.28;;;6.60;100.00
6615;BME280;3343;42.896;23.912;2023-01-04T00:20:26;97435.84;;;6.79;100.00
6615;BME280;3343;42.896;23.912;2023-01-04T00:22:54;97434.63;;;7.20;100.00
6615;BME280;3343;42.896;23.912;2023-01-04T00:25:21;97440.56;;;7.22;100.00
6615;BME280;3343;42.896;23.912;2023-01-04T00:27:49;97440.91;;;7.00;100.00
6615;BME280;3343;42.896;23.912;2023-01-04T00:30:16;97445.69;;;6.38;100.00
6615;BME280;3343;42.896;23.912;2023-01-04T00:32:43;97446.81;;;6.17;100.00
6615;BME280;3343;42.896;23.912;2023-01-04T00:35:10;97451.50;;;6.23;100.00
6615;BME280;3343;42.896;23.912;2023-01-04T00:37:38;97446.94;;;6.44;100.00
6615;BME280;3343;42.896;23.912;2023-01-04T00:40:08;97451.88;;;6.37;100.00
6615;BME280;3343;42.896;23.912;2023-01-04T00:42:35;97452.81;;;6.75;100.00
6615;BME280;3343;42.896;23.912;2023-01-04T00:45:02;97451.31;;;7.19;100.00
6615;BME280;3343;42.896;23.912;2023-01-04T00:47:29;97455.44;;;7.22;100.00
6615;BME280;3343;42.896;23.912;2023-01-04T00:49:55;97460.66;;;7.22;100.00
6615;BME280;3343;42.896;23.912;2023-01-04T00:52:22;97458.94;;;7.03;100.00
6615;BME280;3343;42.896;23.912;2023-01-04T00:54:49;97464.63;;;6.98;100.00
6615;BME280;3343;42.896;23.912;2023-01-04T00:57:17;97460.91;;;6.82;100.00
6615;BME280;3343;42.896;23.912;2023-01-04T00:59:44;97458.84;;;6.85;100.00
6615;BME280;3343;42.896;23.912;2023-01-04T01:02:11;97462.38;;;7.03;100.00
6615;BME280;3343;42.896;23.912;2023-01-04T01:04:38;97462.41;;;6.84;100.00
6615;BME280;3343;42.896;23.912;2023-01-04T01:07:05;97463.53;;;6.72;100.00
6615;BME280;3343;42.896;23.912;2023-01-04T01:09:32;97467.09;;;6.81;100.00
6615;BME280;3343;42.896;23.912;2023-01-04T01:11:59;97469.97;;;6.97;100.00
6615;BME280;3343;42.896;23.912;2023-01-04T01:14:27;97472.81;;;7.13;99.08
6615;BME280;3343;42.896;23.912;2023-01-04T01:16:54;97473.44;;;6.97;97.76
6615;BME280;3343;42.896;23.912;2023-01-04T01:19:21;97479.00;;;6.56;98.95
6615;BME280;3343;42.896;23.912;2023-01-04T01:21:48;97475.84;;;6.43;100.00
6615;BME280;3343;42.896;23.912;2023-01-04T01:24:17;97467.16;;;6.23;100.00
6615;BME280;3343;42.896;23.912;2023-01-04T01:26:45;97466.06;;;6.25;100.00
6615;BME280;3343;42.896;23.912;2023-01-04T01:29:12;97463.00;;;6.59;100.00
6615;BME280;3343;42.896;23.912;2023-01-04T01:31:40;97458.63;;;6.50;100.00
6615;BME280;3343;42.896;23.912;2023-01-04T01:34:07;97448.19;;;6.11;100.00
6615;BME280;3343;42.896;23.912;2023-01-04T01:36:35;97461.13;;;6.32;100.00
6615;BME280;3343;42.896;23.912;2023-01-04T01:39:02;97471.09;;;6.85;100.00
6615;BME280;3343;42.896;23.912;2023-01-04T01:41:30;97475.75;;;6.91;100.00
6615;BME280;3343;42.896;23.912;2023-01-04T01:43:59;97464.09;;;6.66;100.00
6615;BME280;3343;42.896;23.912;2023-01-04T01:46:30;97462.69;;;6.81;100.00
6615;BME280;3343;42.896;23.912;2023-01-04T01:49:04;97455.59;;;7.20;99.03
6615;BME280;3343;42.896;23.912;2023-01-04T01:51:36;97455.47;;;7.12;99.16
6615;BME280;3343;42.896;23.912;2023-01-04T01:54:08;97459.03;;;7.21;97.77
6615;BME280;3343;42.896;23.912;2023-01-04T01:56:37;97454.28;;;7.34;96.68
6615;BME280;3343;42.896;23.912;2023-01-04T01:59:05;97455.53;;;7.30;97.16
6615;BME280;3343;42.896;23.912;2023-01-04T02:01:34;97455.44;;;7.22;95.65
6615;BME280;3343;42.896;23.912;2023-01-04T02:04:03;97458.66;;;7.06;96.12
6615;BME280;3343;42.896;23.912;2023-01-04T02:06:33;97446.72;;;6.94;96.50
6615;BME280;3343;42.896;23.912;2023-01-04T02:09:02;97445.16;;;6.45;98.21
6615;BME280;3343;42.896;23.912;2023-01-04T02:11:29;97447.31;;;6.59;100.00
6615;BME280;3343;42.896;23.912;2023-01-04T02:13:57;97442.66;;;6.53;98.68
6615;BME280;3343;42.896;23.912;2023-01-04T02:16:52;97442.66;;;6.43;100.00
6615;BME280;3343;42.896;23.912;2023-01-04T02:19:47;97445.69;;;6.48;100.00
6615;BME280;3343;42.896;23.912;2023-01-04T02:22:40;97444.59;;;6.41;100.00
6615;BME280;3343;42.896;23.912;2023-01-04T02:25:32;97425.06;;;6.16;100.00
6615;BME280;3343;42.896;23.912;2023-01-04T02:28:02;97429.28;;;6.65;100.00
6615;BME280;3343;42.896;23.912;2023-01-04T02:31:06;97424.53;;;6.98;100.00
6615;BME280;3343;42.896;23.912;2023-01-04T02:33:46;97432.84;;;7.21;99.97
6615;BME280;3343;42.896;23.912;2023-01-04T02:36:22;97425.44;;;7.16;98.86
6615;BME280;3343;42.896;23.912;2023-01-04T02:39:04;97426.53;;;7.14;97.58
6615;BME280;3343;42.896;23.912;2023-01-04T02:41:37;97435.13;;;6.96;98.19
6615;BME280;3343;42.896;23.912;2023-01-04T02:44:13;97435.03;;;6.79;96.32
6615;BME280;3343;42.896;23.912;2023-01-04T02:47:01;97444.16;;;6.65;96.98
6615;BME280;3343;42.896;23.912;2023-01-04T02:49:30;97447.78;;;6.25;97.68
6615;BME280;3343;42.896;23.912;2023-01-04T02:52:14;97449.28;;;6.37;96.32
6615;BME280;3343;42.896;23.912;2023-01-04T02:54:43;97446.50;;;6.49;96.46
6615;BME280;3343;42.896;23.912;2023-01-04T02:57:24;97448.28;;;6.67;96.33
6615;BME280;3343;42.896;23.912;2023-01-04T03:00:16;97446.72;;;6.84;95.19
6615;BME280;3343;42.896;23.912;2023-01-04T03:02:55;97450.28;;;5.67;100.00
6615;BME280;3343;42.896;23.912;2023-01-04T03:05:52;97454.06;;;5.94;100.00
6615;BME280;3343;42.896;23.912;2023-01-04T03:08:46;97446.53;;;6.20;100.00
6615;BME280;3343;42.896;23.912;2023-01-04T03:11:15;97446.94;;;6.25;100.00
6615;BME280;3343;42.896;23.912;2023-01-04T03:14:05;97449.28;;;6.47;99.69
6615;BME280;3343;42.896;23.912;2023-01-04T03:16:34;97462.19;;;6.49;99.35
6615;BME280;3343;42.896;23.912;2023-01-04T03:19:06;97460.53;;;6.57;99.41
6615;BME280;3343;42.896;23.912;2023-01-04T03:21:35;97460.84;;;6.45;99.20
6615;BME280;3343;42.896;23.912;2023-01-04T03:24:05;97455.47;;;6.36;100.00
6615;BME280;3343;42.896;23.912;2023-01-04T03:26:53;97450.53;;;6.24;100.00
6615;BME280;3343;42.896;23.912;2023-01-04T03:29:41;97455.81;;;5.84;100.00
6615;BME280;3343;42.896;23.912;2023-01-04T03:32:45;97462.91;;;6.31;100.00
6615;BME280;3343;42.896;23.912;2023-01-04T03:35:40;97462.34;;;6.47;100.00
6615;BME280;3343;42.896;23.912;2023-01-04T03:38:11;97458.16;;;6.74;98.81
6615;BME280;3343;42.896;23.912;2023-01-04T03:41:00;97459.13;;;6.72;98.31
6615;BME280;3343;42.896;23.912;2023-01-04T03:43:53;97460.16;;;6.23;100.00
6615;BME280;3343;42.896;23.912;2023-01-04T03:46:44;97464.59;;;5.73;100.00
6615;BME280;3343;42.896;23.912;2023-01-04T03:49:37;97466.75;;;5.58;100.00
6615;BME280;3343;42.896;23.912;2023-01-04T03:52:07;97467.88;;;5.65;100.00
6615;BME280;3343;42.896;23.912;2023-01-04T03:54:37;97474.06;;;6.14;100.00
6615;BME280;3343;42.896;23.912;2023-01-04T03:57:06;97471.16;;;6.17;100.00
6615;BME280;3343;42.896;23.912;2023-01-04T03:59:35;97470.06;;;6.10;100.00
6615;BME280;3343;42.896;23.912;2023-01-04T04:02:04;97482.84;;;6.13;100.00
6615;BME280;3343;42.896;23.912;2023-01-04T04:04:34;97472.06;;;5.97;100.00
6615;BME280;3343;42.896;23.912;2023-01-04T04:07:20;97474.88;;;6.15;100.00
6615;BME280;3343;42.896;23.912;2023-01-04T04:10:05;97474.03;;;6.43;98.94
6615;BME280;3343;42.896;23.912;2023-01-04T04:12:32;97475.97;;;6.31;98.33
6615;BME280;3343;42.896;23.912;2023-01-04T04:14:59;97462.78;;;6.14;98.24
6615;BME280;3343;42.896;23.912;2023-01-04T04:17:26;97467.72;;;6.26;98.92
6615;BME280;3343;42.896;23.912;2023-01-04T04:19:53;97470.28;;;5.97;98.87
6615;BME280;3343;42.896;23.912;2023-01-04T04:22:21;97469.81;;;5.83;100.00
6615;BME280;3343;42.896;23.912;2023-01-04T04:24:48;97476.50;;;6.06;99.71
6615;BME280;3343;42.896;23.912;2023-01-04T04:27:15;97483.41;;;6.36;98.88
6615;BME280;3343;42.896;23.912;2023-01-04T04:29:42;97482.56;;;6.16;97.69
6615;BME280;3343;42.896;23.912;2023-01-04T04:32:09;97482.19;;;5.81;100.00
6615;BME280;3343;42.896;23.912;2023-01-04T04:34:35;97480.69;;;5.88;100.00
6615;BME280;3343;42.896;23.912;2023-01-04T04:37:02;97473.66;;;5.69;100.00
6615;BME280;3343;42.896;23.912;2023-01-04T04:39:31;97481.19;;;5.62;100.00
6615;BME280;3343;42.896;23.912;2023-01-04T04:41:57;97478.72;;;5.61;100.00
6615;BME280;3343;42.896;23.912;2023-01-04T04:44:23;97493.13;;;6.05;100.00
6615;BME280;3343;42.896;23.912;2023-01-04T04:46:50;97486.44;;;6.31;100.00
6615;BME280;3343;42.896;23.912;2023-01-04T04:49:17;97493.31;;;6.52;99.79
6615;BME280;3343;42.896;23.912;2023-01-04T04:51:44;97495.34;;;6.96;96.90
6615;BME280;3343;42.896;23.912;2023-01-04T04:54:16;97496.69;;;7.00;96.10
6615;BME280;3343;42.896;23.912;2023-01-04T04:56:45;97498.38;;;6.63;97.81
6615;BME280;3343;42.896;23.912;2023-01-04T04:59:12;97497.69;;;6.70;96.75
6615;BME280;3343;42.896;23.912;2023-01-04T05:01:39;97491.94;;;6.48;97.83
6615;BME280;3343;42.896;23.912;2023-01-04T05:04:06;97497.31;;;6.36;96.44
6615;BME280;3343;42.896;23.912;2023-01-04T05:06:33;97498.25;;;6.16;97.96
6615;BME280;3343;42.896;23.912;2023-01-04T05:09:00;97506.09;;;6.26;96.92
6615;BME280;3343;42.896;23.912;2023-01-04T05:11:27;97501.00;;;6.34;95.04
6615;BME280;3343;42.896;23.912;2023-01-04T05:14:12;97505.69;;;6.30;94.98
6615;BME280;3343;42.896;23.912;2023-01-04T05:16:39;97509.25;;;6.20;95.83
6615;BME280;3343;42.896;23.912;2023-01-04T05:19:06;97511.72;;;5.71;97.44
6615;BME280;3343;42.896;23.912;2023-01-04T05:21:33;97515.94;;;5.23;100.00
6615;BME280;3343;42.896;23.912;2023-01-04T05:24:00;97516.94;;;5.10;100.00
6615;BME280;3343;42.896;23.912;2023-01-04T05:26:27;97517.28;;;5.48;100.00
6615;BME280;3343;42.896;23.912;2023-01-04T05:28:53;97516.59;;;5.46;100.00
6615;BME280;3343;42.896;23.912;2023-01-04T05:31:22;97520.19;;;5.54;100.00
6615;BME280;3343;42.896;23.912;2023-01-04T05:33:48;97523.00;;;5.11;100.00
6615;BME280;3343;42.896;23.912;2023-01-04T05:36:15;97525.22;;;5.16;100.00
6615;BME280;3343;42.896;23.912;2023-01-04T05:38:42;97531.91;;;5.60;100.00
6615;BME280;3343;42.896;23.912;2023-01-04T05:41:08;97527.25;;;5.63;100.00
6615;BME280;3343;42.896;23.912;2023-01-04T05:43:49;97536.75;;;5.74;99.88
6615;BME280;3343;42.896;23.912;2023-01-04T05:46:16;97537.53;;;5.95;99.71
6615;BME280;3343;42.896;23.912;2023-01-04T05:48:44;97540.50;;;6.21;97.98
6615;BME280;3343;42.896;23.912;2023-01-04T05:51:11;97545.38;;;6.05;97.45
6615;BME280;3343;42.896;23.912;2023-01-04T05:53:38;97549.44;;;6.28;97.43
6615;BME280;3343;42.896;23.912;2023-01-04T05:56:05;97541.19;;;6.33;96.61
6615;BME280;3343;42.896;23.912;2023-01-04T05:58:33;97550.56;;;6.35;96.29
6615;BME280;3343;42.896;23.912;2023-01-04T06:00:59;97550.00;;;6.32;94.95
6615;BME280;3343;42.896;23.912;2023-01-04T06:03:26;97554.41;;;6.31;95.55
6615;BME280;3343;42.896;23.912;2023-01-04T06:05:55;97556.88;;;6.23;94.46
6615;BME280;3343;42.896;23.912;2023-01-04T06:08:21;97559.25;;;5.96;94.77
6615;BME280;3343;42.896;23.912;2023-01-04T06:10:51;97555.94;;;5.94;95.02
6615;BME280;3343;42.896;23.912;2023-01-04T06:13:18;97555.03;;;5.74;95.75
6615;BME280;3343;42.896;23.912;2023-01-04T06:15:45;97566.94;;;5.57;97.53
6615;BME280;3343;42.896;23.912;2023-01-04T06:18:12;97564.94;;;5.40;98.97
6615;BME280;3343;42.896;23.912;2023-01-04T06:20:41;97567.88;;;5.56;97.74
6615;BME280;3343;42.896;23.912;2023-01-04T06:23:09;97567.09;;;5.65;97.89
6615;BME280;3343;42.896;23.912;2023-01-04T06:25:36;97570.53;;;5.35;98.54
6615;BME280;3343;42.896;23.912;2023-01-04T06:28:03;97569.28;;;5.60;98.56
6615;BME280;3343;42.896;23.912;2023-01-04T06:30:30;97569.97;;;5.62;99.00
6615;BME280;3343;42.896;23.912;2023-01-04T06:32:56;97579.81;;;5.07;100.00
6615;BME280;3343;42.896;23.912;2023-01-04T06:35:23;97578.88;;;5.08;100.00
6615;BME280;3343;42.896;23.912;2023-01-04T06:37:50;97582.72;;;5.56;100.00
6615;BME280;3343;42.896;23.912;2023-01-04T06:40:18;97578.28;;;5.77;100.00
6615;BME280;3343;42.896;23.912;2023-01-04T06:42:45;97588.03;;;5.44;100.00
6615;BME280;3343;42.896;23.912;2023-01-04T06:45:13;97587.78;;;5.48;100.00
6615;BME280;3343;42.896;23.912;2023-01-04T06:47:40;97599.50;;;5.53;100.00
6615;BME280;3343;42.896;23.912;2023-01-04T06:50:08;97598.72;;;5.93;100.00
6615;BME280;3343;42.896;23.912;2023-01-04T06:52:35;97597.22;;;6.00;99.69
6615;BME280;3343;42.896;23.912;2023-01-04T06:55:02;97594.31;;;6.33;99.49
6615;BME280;3343;42.896;23.912;2023-01-04T06:57:30;97590.63;;;6.65;98.84
6615;BME280;3343;42.896;23.912;2023-01-04T06:59:57;97592.25;;;6.37;98.98
6615;BME280;3343;42.896;23.912;2023-01-04T07:02:24;97586.63;;;6.90;98.56
6615;BME280;3343;42.896;23.912;2023-01-04T07:04:51;97600.31;;;7.50;97.79
6615;BME280;3343;42.896;23.912;2023-01-04T07:07:19;97598.91;;;8.29;96.14
6615;BME280;3343;42.896;23.912;2023-01-04T07:09:46;97577.16;;;8.65;91.28
6615;BME280;3343;42.896;23.912;2023-01-04T07:12:12;97600.25;;;9.14;88.55
6615;BME280;3343;42.896;23.912;2023-01-04T07:14:41;97595.09;;;9.74;87.36
6615;BME280;3343;42.896;23.912;2023-01-04T07:17:07;97610.53;;;10.11;87.38
6615;BME280;3343;42.896;23.912;2023-01-04T07:19:34;97610.06;;;10.50;86.71
6615;BME280;3343;42.896;23.912;2023-01-04T07:22:01;97610.13;;;10.82;82.60
6615;BME280;3343;42.896;23.912;2023-01-04T07:24:28;97614.72;;;10.72;80.73
6615;BME280;3343;42.896;23.912;2023-01-04T07:26:55;97606.66;;;10.74;82.11
6615;BME280;3343;42.896;23.912;2023-01-04T07:29:22;97600.53;;;10.49;83.79
6615;BME280;3343;42.896;23.912;2023-01-04T07:31:50;97608.50;;;10.98;84.05
6615;BME280;3343;42.896;23.912;2023-01-04T07:34:19;97613.56;;;10.59;84.04
6615;BME280;3343;42.896;23.912;2023-01-04T07:36:46;97615.22;;;10.68;85.45
6615;BME280;3343;42.896;23.912;2023-01-04T07:39:14;97626.94;;;10.90;86.19
6615;BME280;3343;42.896;23.912;2023-01-04T07:41:41;97619.03;;;11.22;83.82
6615;BME280;3343;42.896;23.912;2023-01-04T07:44:09;97622.66;;;11.05;82.81
6615;BME280;3343;42.896;23.912;2023-01-04T07:46:37;97631.38;;;10.81;84.90
6615;BME280;3343;42.896;23.912;2023-01-04T07:49:05;97624.78;;;10.85;85.54
6615;BME280;3343;42.896;23.912;2023-01-04T07:51:32;97621.78;;;10.56;86.37
6615;BME280;3343;42.896;23.912;2023-01-04T07:53:59;97623.38;;;10.40;86.77
6615;BME280;3343;42.896;23.912;2023-01-04T07:56:26;97621.91;;;10.46;86.67
6615;BME280;3343;42.896;23.912;2023-01-04T07:58:53;97623.78;;;10.70;86.37
6615;BME280;3343;42.896;23.912;2023-01-04T08:01:24;97625.94;;;10.99;86.34
6615;BME280;3343;42.896;23.912;2023-01-04T08:03:51;97614.63;;;11.31;84.69
6615;BME280;3343;42.896;23.912;2023-01-04T08:06:20;97619.34;;;11.76;83.17
6615;BME280;3343;42.896;23.912;2023-01-04T08:08:48;97618.97;;;12.03;81.92
6615;BME280;3343;42.896;23.912;2023-01-04T08:11:16;97629.31;;;12.60;80.14
6615;BME280;3343;42.896;23.912;2023-01-04T08:13:43;97632.03;;;12.98;77.36
6615;BME280;3343;42.896;23.912;2023-01-04T08:16:18;97631.25;;;13.43;74.98
6615;BME280;3343;42.896;23.912;2023-01-04T08:18:46;97629.56;;;13.65;75.34
6615;BME280;3343;42.896;23.912;2023-01-04T08:21:14;97620.00;;;13.64;75.18
6615;BME280;3343;42.896;23.912;2023-01-04T08:23:42;97626.69;;;14.19;73.17
6615;BME280;3343;42.896;23.912;2023-01-04T08:26:10;97637.56;;;14.09;73.56
6615;BME280;3343;42.896;23.912;2023-01-04T08:28:38;97643.13;;;14.29;75.12
6615;BME280;3343;42.896;23.912;2023-01-04T08:31:07;97638.84;;;14.43;73.71
6615;BME280;3343;42.896;23.912;2023-01-04T08:33:35;97640.63;;;14.72;73.64
6615;BME280;3343;42.896;23.912;2023-01-04T08:36:07;97646.13;;;14.41;74.51
6615;BME280;3343;42.896;23.912;2023-01-04T08:38:34;97648.75;;;13.82;77.55
6615;BME280;3343;42.896;23.912;2023-01-04T08:41:02;97648.94;;;13.43;80.73
6615;BME280;3343;42.896;23.912;2023-01-04T08:43:29;97648.41;;;12.93;83.12
6615;BME280;3343;42.896;23.912;2023-01-04T08:45:56;97645.78;;;12.31;85.90
6615;BME280;3343;42.896;23.912;2023-01-04T08:48:23;97636.28;;;11.98;88.20
6615;BME280;3343;42.896;23.912;2023-01-04T08:50:50;97637.31;;;11.72;89.19
6615;BME280;3343;42.896;23.912;2023-01-04T08:53:17;97642.41;;;11.98;90.26
6615;BME280;3343;42.896;23.912;2023-01-04T08:55:48;97648.22;;;12.41;88.42
6615;BME280;3343;42.896;23.912;2023-01-04T08:58:18;97652.53;;;12.34;87.62
6615;BME280;3343;42.896;23.912;2023-01-04T09:00:45;97652.25;;;12.60;87.50
6615;BME280;3343;42.896;23.912;2023-01-04T09:03:12;97646.88;;;13.07;86.00
6615;BME280;3343;42.896;23.912;2023-01-04T09:05:40;97645.25;;;13.29;83.85
6615;BME280;3343;42.896;23.912;2023-01-04T09:08:07;97642.13;;;13.02;82.89
6615;BME280;3343;42.896;23.912;2023-01-04T09:10:37;97649.25;;;12.94;84.61
6615;BME280;3343;42.896;23.912;2023-01-04T09:13:04;97636.34;;;12.68;84.18
6615;BME280;3343;42.896;23.912;2023-01-04T09:15:32;97635.41;;;12.61;86.71
6615;BME280;3343;42.896;23.912;2023-01-04T09:17:59;97631.69;;;12.78;84.18
6615;BME280;3343;42.896;23.912;2023-01-04T09:20:27;97636.31;;;12.99;83.36
6615;BME280;3343;42.896;23.912;2023-01-04T09:22:55;97634.22;;;13.25;82.36
6615;BME280;3343;42.896;23.912;2023-01-04T09:25:22;97624.47;;;13.26;80.01
6615;BME280;3343;42.896;23.912;2023-01-04T09:27:49;97627.22;;;13.32;80.64
6615;BME280;3343;42.896;23.912;2023-01-04T09:30:16;97623.03;;;13.38;80.45
6615;BME280;3343;42.896;23.912;2023-01-04T09:32:44;97610.00;;;13.36;80.24
6615;BME280;3343;42.896;23.912;2023-01-04T09:35:11;97609.34;;;13.34;80.02
6615;BME280;3343;42.896;23.912;2023-01-04T09:37:38;97617.22;;;13.43;82.19
6615;BME280;3343;42.896;23.912;2023-01-04T09:40:06;97617.59;;;13.17;81.54
6615;BME280;3343;42.896;23.912;2023-01-04T09:42:36;97608.72;;;13.32;81.30
6615;BME280;3343;42.896;23.912;2023-01-04T09:45:14;97620.28;;;13.31;80.59
6615;BME280;3343;42.896;23.912;2023-01-04T09:47:46;97621.41;;;13.52;79.93
6615;BME280;3343;42.896;23.912;2023-01-04T09:50:18;97623.72;;;13.55;80.22
6615;BME280;3343;42.896;23.912;2023-01-04T09:52:55;97625.28;;;13.64;79.89
6615;BME280;3343;42.896;23.912;2023-01-04T09:55:26;97604.94;;;13.64;80.63
6615;BME280;3343;42.896;23.912;2023-01-04T09:57:58;97619.25;;;13.70;80.06
6615;BME280;3343;42.896;23.912;2023-01-04T10:00:30;97615.91;;;13.16;82.00
6615;BME280;3343;42.896;23.912;2023-01-04T10:03:04;97614.28;;;13.15;82.35
6615;BME280;3343;42.896;23.912;2023-01-04T10:05:33;97609.06;;;13.06;83.28
6615;BME280;3343;42.896;23.912;2023-01-04T10:08:01;97609.16;;;13.13;82.20
6615;BME280;3343;42.896;23.912;2023-01-04T10:10:45;97609.09;;;13.44;80.91
6615;BME280;3343;42.896;23.912;2023-01-04T10:13:24;97614.59;;;13.57;80.99
6615;BME280;3343;42.896;23.912;2023-01-04T10:16:05;97612.16;;;13.85;79.79
6615;BME280;3343;42.896;23.912;2023-01-04T10:18:43;97612.69;;;13.66;80.63
6615;BME280;3343;42.896;23.912;2023-01-04T10:21:32;97609.81;;;14.05;79.21
6615;BME280;3343;42.896;23.912;2023-01-04T10:24:41;97605.63;;;14.11;78.31
6615;BME280;3343;42.896;23.912;2023-01-04T10:27:18;97602.69;;;14.20;78.67
6615;BME280;3343;42.896;23.912;2023-01-04T10:29:59;97609.88;;;13.82;79.28
6615;BME280;3343;42.896;23.912;2023-01-04T10:32:36;97595.84;;;14.11;78.69
6615;BME280;3343;42.896;23.912;2023-01-04T10:35:16;97594.19;;;14.25;77.10
6615;BME280;3343;42.896;23.912;2023-01-04T10:37:45;97595.19;;;14.39;78.02
6615;BME280;3343;42.896;23.912;2023-01-04T10:40:15;97600.66;;;14.37;76.99
6615;BME280;3343;42.896;23.912;2023-01-04T10:42:48;97598.13;;;14.29;75.77
6615;BME280;3343;42.896;23.912;2023-01-04T10:45:21;97600.25;;;14.04;78.24
6615;BME280;3343;42.896;23.912;2023-01-04T10:47:57;97604.97;;;14.09;78.71
6615;BME280;3343;42.896;23.912;2023-01-04T10:50:35;97602.06;;;14.03;78.61
6615;BME280;3343;42.896;23.912;2023-01-04T10:53:09;97600.59;;;14.01;78.64
6615;BME280;3343;42.896;23.912;2023-01-04T10:55:42;97602.25;;;13.87;79.02
6615;BME280;3343;42.896;23.912;2023-01-04T10:58:16;97602.75;;;13.68;79.89
6615;BME280;3343;42.896;23.912;2023-01-04T11:00:50;97599.56;;;13.73;79.58
6615;BME280;3343;42.896;23.912;2023-01-04T11:03:21;97601.91;;;13.53;80.52
6615;BME280;3343;42.896;23.912;2023-01-04T11:05:56;97594.84;;;13.30;80.70
6615;BME280;3343;42.896;23.912;2023-01-04T11:08:28;97604.53;;;13.15;82.19
6615;BME280;3343;42.896;23.912;2023-01-04T11:10:59;97602.13;;;13.28;81.89
6615;BME280;3343;42.896;23.912;2023-01-04T11:13:29;97600.91;;;12.85;83.32
6615;BME280;3343;42.896;23.912;2023-01-04T11:15:57;97610.00;;;12.83;84.52
6615;BME280;3343;42.896;23.912;2023-01-04T11:18:25;97597.81;;;12.82;84.14
6615;BME280;3343;42.896;23.912;2023-01-04T11:20:54;97598.00;;;13.03;83.94
6615;BME280;3343;42.896;23.912;2023-01-04T11:23:21;97598.09;;;12.87;84.04
6615;BME280;3343;42.896;23.912;2023-01-04T11:25:50;97592.03;;;13.09;83.36
6615;BME280;3343;42.896;23.912;2023-01-04T11:28:20;97597.41;;;13.16;83.32
6615;BME280;3343;42.896;23.912;2023-01-04T11:30:54;97598.69;;;13.43;81.70
6615;BME280;3343;42.896;23.912;2023-01-04T11:33:24;97591.41;;;13.45;81.66
6615;BME280;3343;42.896;23.912;2023-01-04T11:35:54;97591.16;;;13.54;81.50
6615;BME280;3343;42.896;23.912;2023-01-04T11:38:25;97586.41;;;13.50;80.93
6615;BME280;3343;42.896;23.912;2023-01-04T11:40:55;97585.22;;;13.52;81.46
6615;BME280;3343;42.896;23.912;2023-01-04T11:43:23;97577.19;;;13.46;81.47
6615;BME280;3343;42.896;23.912;2023-01-04T11:46:02;97581.09;;;13.12;82.02
6615;BME280;3343;42.896;23.912;2023-01-04T11:48:37;97586.97;;;13.22;82.28
6615;BME280;3343;42.896;23.912;2023-01-04T11:51:16;97580.09;;;13.36;81.93
6615;BME280;3343;42.896;23.912;2023-01-04T11:53:44;97575.59;;;13.22;81.99
6615;BME280;3343;42.896;23.912;2023-01-04T11:56:20;97572.94;;;13.22;82.28
6615;BME280;3343;42.896;23.912;2023-01-04T11:59:11;97570.16;;;13.38;81.66
6615;BME280;3343;42.896;23.912;2023-01-04T12:01:40;97574.63;;;13.37;82.50
6615;BME280;3343;42.896;23.912;2023-01-04T12:04:13;97578.63;;;13.33;82.27
6615;BME280;3343;42.896;23.912;2023-01-04T12:06:46;97578.06;;;13.23;83.26
6615;BME280;3343;42.896;23.912;2023-01-04T12:09:15;97580.00;;;12.98;83.87
6615;BME280;3343;42.896;23.912;2023-01-04T12:11:46;97574.94;;;13.20;83.27
6615;BME280;3343;42.896;23.912;2023-01-04T12:14:21;97580.25;;;13.34;82.67
6615;BME280;3343;42.896;23.912;2023-01-04T12:16:55;97574.56;;;13.00;83.53
6615;BME280;3343;42.896;23.912;2023-01-04T12:19:23;97576.03;;;12.80;85.09
6615;BME280;3343;42.896;23.912;2023-01-04T12:21:54;97578.88;;;13.01;84.50
6615;BME280;3343;42.896;23.912;2023-01-04T12:24:25;97581.44;;;13.32;82.61
6615;BME280;3343;42.896;23.912;2023-01-04T12:26:52;97579.44;;;13.11;83.37
6615;BME280;3343;42.896;23.912;2023-01-04T12:29:41;97583.56;;;13.36;82.24
6615;BME280;3343;42.896;23.912;2023-01-04T12:35:57;97585.44;;;13.28;82.91
6615;BME280;3343;42.896;23.912;2023-01-04T12:38:57;97578.28;;;13.51;81.87
6615;BME280;3343;42.896;23.912;2023-01-04T12:45:08;97580.94;;;13.66;80.31
6615;BME280;3343;42.896;23.912;2023-01-04T12:47:41;97589.44;;;13.61;80.41
6615;BME280;3343;42.896;23.912;2023-01-04T12:50:25;97586.91;;;13.30;81.50
6615;BME280;3343;42.896;23.912;2023-01-04T12:52:57;97589.31;;;13.40;81.58
6615;BME280;3343;42.896;23.912;2023-01-04T12:55:50;97597.53;;;13.60;80.92
6615;BME280;3343;42.896;23.912;2023-01-04T13:01:23;97581.09;;;13.12;83.78
6615;BME280;3343;42.896;23.912;2023-01-04T13:03:55;97579.63;;;13.32;82.76
6615;BME280;3343;42.896;23.912;2023-01-04T13:06:23;97586.47;;;13.42;82.24
6615;BME280;3343;42.896;23.912;2023-01-04T13:08:52;97578.97;;;13.30;82.90
6615;BME280;3343;42.896;23.912;2023-01-04T13:11:43;97586.56;;;13.33;82.66
6615;BME280;3343;42.896;23.912;2023-01-04T13:14:18;97590.31;;;13.16;83.73
6615;BME280;3343;42.896;23.912;2023-01-04T13:16:51;97588.13;;;13.43;82.53
6615;BME280;3343;42.896;23.912;2023-01-04T13:19:23;97589.06;;;13.64;81.39
6615;BME280;3343;42.896;23.912;2023-01-04T13:21:51;97591.75;;;13.42;81.89
6615;BME280;3343;42.896;23.912;2023-01-04T13:24:21;97592.28;;;13.22;83.26
6615;BME280;3343;42.896;23.912;2023-01-04T13:26:50;97596.13;;;13.34;82.86
6615;BME280;3343;42.896;23.912;2023-01-04T13:29:20;97594.94;;;13.37;82.38
6615;BME280;3343;42.896;23.912;2023-01-04T13:31:53;97597.47;;;13.07;84.12
6615;BME280;3343;42.896;23.912;2023-01-04T13:34:26;97600.34;;;12.98;85.14
6615;BME280;3343;42.896;23.912;2023-01-04T13:37:01;97601.28;;;12.82;86.05
6615;BME280;3343;42.896;23.912;2023-01-04T13:39:30;97593.31;;;12.59;87.12
6615;BME280;3343;42.896;23.912;2023-01-04T13:41:58;97599.44;;;12.60;87.13
6615;BME280;3343;42.896;23.912;2023-01-04T13:44:46;97596.44;;;12.63;86.72
6615;BME280;3343;42.896;23.912;2023-01-04T13:47:17;97600.16;;;12.76;86.23